sensor_id;sensor_type;location;lat;lon;timestamp;temperature;humidity
26703;DHT22;14316;51.074;3.704;2024-02-04T00:02:07;10.40;99.90
26703;DHT22;14316;51.074;3.704;2024-02-04T00:04:35;10.40;99.90
26703;DHT22;14316;51.074;3.704;2024-02-04T00:07:01;10.40;99.90
26703;DHT22;14316;51.074;3.704;2024-02-04T00:09:28;10.40;99.90
26703;DHT22;14316;51.074;3.704;2024-02-04T00:11:54;10.40;99.90
26703;DHT22;14316;51.074;3.704;2024-02-04T00:14:20;10.40;99.90
26703;DHT22;14316;51.074;3.704;2024-02-04T00:16:46;10.40;99.90
26703;DHT22;14316;51.074;3.704;2024-02-04T00:19:12;10.40;99.90
26703;DHT22;14316;51.074;3.704;2024-02-04T00:21:38;10.40;99.90
26703;DHT22;14316;51.074;3.704;2024-02-04T00:24:04;10.40;99.90
26703;DHT22;14316;51.074;3.704;2024-02-04T00:26:30;10.40;99.90
26703;DHT22;14316;51.074;3.704;2024-02-04T00:28:56;10.40;99.90
26703;DHT22;14316;51.074;3.704;2024-02-04T00:31:22;10.40;99.90
26703;DHT22;14316;51.074;3.704;2024-02-04T00:33:48;10.40;99.90
26703;DHT22;14316;51.074;3.704;2024-02-04T00:36:14;10.50;99.90
26703;DHT22;14316;51.074;3.704;2024-02-04T00:38:40;10.40;99.90
26703;DHT22;14316;51.074;3.704;2024-02-04T00:41:06;10.40;99.90
26703;DHT22;14316;51.074;3.704;2024-02-04T00:43:32;10.40;99.90
26703;DHT22;14316;51.074;3.704;2024-02-04T00:45:58;10.40;99.90
26703;DHT22;14316;51.074;3.704;2024-02-04T00:48:25;10.40;99.90
26703;DHT22;14316;51.074;3.704;2024-02-04T00:50:51;10.40;99.90
26703;DHT22;14316;51.074;3.704;2024-02-04T00:53:17;10.40;99.90
26703;DHT22;14316;51.074;3.704;2024-02-04T00:55:43;10.40;99.90
26703;DHT22;14316;51.074;3.704;2024-02-04T00:58:09;10.40;99.90
26703;DHT22;14316;51.074;3.704;2024-02-04T01:00:35;10.40;99.90
26703;DHT22;14316;51.074;3.704;2024-02-04T01:03:01;10.50;99.90
26703;DHT22;14316;51.074;3.704;2024-02-04T01:05:27;10.40;99.90
26703;DHT22;14316;51.074;3.704;2024-02-04T01:07:52;10.40;99.90
26703;DHT22;14316;51.074;3.704;2024-02-04T01:10:18;10.40;99.90
26703;DHT22;14316;51.074;3.704;2024-02-04T01:12:44;10.40;99.90
26703;DHT22;14316;51.074;3.704;2024-02-04T01:15:10;10.50;99.90
26703;DHT22;14316;51.074;3.704;2024-02-04T01:17:36;10.40;99.90
26703;DHT22;14316;51.074;3.704;2024-02-04T01:20:02;10.50;99.90
26703;DHT22;14316;51.074;3.704;2024-02-04T01:22:28;10.50;99.90
26703;DHT22;14316;51.074;3.704;2024-02-04T01:24:54;10.50;99.90
26703;DHT22;14316;51.074;3.704;2024-02-04T01:27:20;10.40;99.90
26703;DHT22;14316;51.074;3.704;2024-02-04T01:29:46;10.50;99.90
26703;DHT22;14316;51.074;3.704;2024-02-04T01:32:12;10.50;99.90
26703;DHT22;14316;51.074;3.704;2024-02-04T01:34:38;10.50;99.90
26703;DHT22;14316;51.074;3.704;2024-02-04T01:37:04;10.50;99.90
26703;DHT22;14316;51.074;3.704;2024-02-04T01:39:30;10.50;99.90
26703;DHT22;14316;51.074;3.704;2024-02-04T01:41:56;10.50;99.90
26703;DHT22;14316;51.074;3.704;2024-02-04T01:44:22;10.50;99.90
26703;DHT22;14316;51.074;3.704;2024-02-04T01:46:49;10.50;99.90
26703;DHT22;14316;51.074;3.704;2024-02-04T01:49:15;10.50;99.90
26703;DHT22;14316;51.074;3.704;2024-02-04T01:51:41;10.50;99.90
26703;DHT22;14316;51.074;3.704;2024-02-04T01:54:07;10.50;99.90
26703;DHT22;14316;51.074;3.704;2024-02-04T01:56:34;10.60;99.90
26703;DHT22;14316;51.074;3.704;2024-02-04T01:59:00;10.50;99.90
26703;DHT22;14316;51.074;3.704;2024-02-04T02:01:26;10.60;99.90
26703;DHT22;14316;51.074;3.704;2024-02-04T02:03:53;10.50;99.90
26703;DHT22;14316;51.074;3.704;2024-02-04T02:06:19;10.60;99.90
26703;DHT22;14316;51.074;3.704;2024-02-04T02:08:46;10.60;99.90
26703;DHT22;14316;51.074;3.704;2024-02-04T02:11:19;10.60;99.90
26703;DHT22;14316;51.074;3.704;2024-02-04T02:13:52;10.60;99.90
26703;DHT22;14316;51.074;3.704;2024-02-04T02:16:23;10.60;99.90
26703;DHT22;14316;51.074;3.704;2024-02-04T02:18:53;10.60;99.90
26703;DHT22;14316;51.074;3.704;2024-02-04T02:21:44;10.70;99.90
26703;DHT22;14316;51.074;3.704;2024-02-04T02:24:38;10.60;99.90
26703;DHT22;14316;51.074;3.704;2024-02-04T02:27:04;10.60;99.90
26703;DHT22;14316;51.074;3.704;2024-02-04T02:29:32;10.70;99.90
26703;DHT22;14316;51.074;3.704;2024-02-04T02:32:01;10.70;99.90
26703;DHT22;14316;51.074;3.704;2024-02-04T02:34:30;10.70;99.90
26703;DHT22;14316;51.074;3.704;2024-02-04T02:37:20;10.70;99.90
26703;DHT22;14316;51.074;3.704;2024-02-04T02:42:42;10.60;99.90
26703;DHT22;14316;51.074;3.704;2024-02-04T02:45:09;10.60;99.90
26703;DHT22;14316;51.074;3.704;2024-02-04T02:47:38;10.50;99.90
26703;DHT22;14316;51.074;3.704;2024-02-04T02:50:06;10.50;99.90
26703;DHT22;14316;51.074;3.704;2024-02-04T02:52:33;10.50;99.90
26703;DHT22;14316;51.074;3.704;2024-02-04T02:54:59;10.40;99.90
26703;DHT22;14316;51.074;3.704;2024-02-04T02:57:25;10.40;99.90
26703;DHT22;14316;51.074;3.704;2024-02-04T02:59:51;10.40;99.90
26703;DHT22;14316;51.074;3.704;2024-02-04T03:02:17;10.40;99.90
26703;DHT22;14316;51.074;3.704;2024-02-04T03:04:42;10.40;99.90
26703;DHT22;14316;51.074;3.704;2024-02-04T03:07:08;10.40;99.90
26703;DHT22;14316;51.074;3.704;2024-02-04T03:09:34;10.30;99.90
26703;DHT22;14316;51.074;3.704;2024-02-04T03:12:00;10.30;99.90
26703;DHT22;14316;51.074;3.704;2024-02-04T03:14:26;10.30;99.90
26703;DHT22;14316;51.074;3.704;2024-02-04T03:16:52;10.30;99.90
26703;DHT22;14316;51.074;3.704;2024-02-04T03:19:18;10.30;99.90
26703;DHT22;14316;51.074;3.704;2024-02-04T03:21:44;10.20;99.90
26703;DHT22;14316;51.074;3.704;2024-02-04T03:24:10;10.20;99.90
26703;DHT22;14316;51.074;3.704;2024-02-04T03:26:36;10.20;99.90
26703;DHT22;14316;51.074;3.704;2024-02-04T03:29:02;10.20;99.90
26703;DHT22;14316;51.074;3.704;2024-02-04T03:31:31;10.20;99.90
26703;DHT22;14316;51.074;3.704;2024-02-04T03:33:57;10.20;99.90
26703;DHT22;14316;51.074;3.704;2024-02-04T03:36:24;10.20;99.90
26703;DHT22;14316;51.074;3.704;2024-02-04T03:38:51;10.20;99.90
26703;DHT22;14316;51.074;3.704;2024-02-04T03:41:17;10.20;99.90
26703;DHT22;14316;51.074;3.704;2024-02-04T03:43:43;10.20;99.90
26703;DHT22;14316;51.074;3.704;2024-02-04T03:46:12;10.20;99.90
26703;DHT22;14316;51.074;3.704;2024-02-04T03:48:38;10.20;99.90
26703;DHT22;14316;51.074;3.704;2024-02-04T03:51:04;10.20;99.90
26703;DHT22;14316;51.074;3.704;2024-02-04T03:53:30;10.20;99.90
26703;DHT22;14316;51.074;3.704;2024-02-04T03:55:56;10.10;99.90
26703;DHT22;14316;51.074;3.704;2024-02-04T03:58:22;10.20;99.90
26703;DHT22;14316;51.074;3.704;2024-02-04T04:00:55;10.20;99.90
26703;DHT22;14316;51.074;3.704;2024-02-04T04:03:22;10.30;99.90
26703;DHT22;14316;51.074;3.704;2024-02-04T04:05:48;10.20;99.90
26703;DHT22;14316;51.074;3.704;2024-02-04T04:08:14;10.20;99.90
26703;DHT22;14316;51.074;3.704;2024-02-04T04:10:40;10.30;99.90
26703;DHT22;14316;51.074;3.704;2024-02-04T04:13:06;10.30;99.90
26703;DHT22;14316;51.074;3.704;2024-02-04T04:15:32;10.30;99.90
26703;DHT22;14316;51.074;3.704;2024-02-04T04:17:58;10.30;99.90
26703;DHT22;14316;51.074;3.704;2024-02-04T04:20:24;10.20;99.90
26703;DHT22;14316;51.074;3.704;2024-02-04T04:22:50;10.30;99.90
26703;DHT22;14316;51.074;3.704;2024-02-04T04:25:16;10.30;99.90
26703;DHT22;14316;51.074;3.704;2024-02-04T04:27:43;10.30;99.90
26703;DHT22;14316;51.074;3.704;2024-02-04T04:30:10;10.30;99.90
26703;DHT22;14316;51.074;3.704;2024-02-04T04:32:36;10.30;99.90
26703;DHT22;14316;51.074;3.704;2024-02-04T04:35:02;10.30;99.90
26703;DHT22;14316;51.074;3.704;2024-02-04T04:37:28;10.30;99.90
26703;DHT22;14316;51.074;3.704;2024-02-04T04:39:54;10.30;99.90
26703;DHT22;14316;51.074;3.704;2024-02-04T04:42:20;10.30;99.90
26703;DHT22;14316;51.074;3.704;2024-02-04T04:44:46;10.30;99.90
26703;DHT22;14316;51.074;3.704;2024-02-04T04:47:12;10.20;99.90
26703;DHT22;14316;51.074;3.704;2024-02-04T04:49:38;10.20;99.90
26703;DHT22;14316;51.074;3.704;2024-02-04T04:52:04;10.30;99.90
26703;DHT22;14316;51.074;3.704;2024-02-04T04:54:30;10.20;99.90
26703;DHT22;14316;51.074;3.704;2024-02-04T04:56:56;10.20;99.90
26703;DHT22;14316;51.074;3.704;2024-02-04T04:59:22;10.30;99.90
26703;DHT22;14316;51.074;3.704;2024-02-04T05:01:48;10.30;99.90
26703;DHT22;14316;51.074;3.704;2024-02-04T05:04:16;10.30;99.90
26703;DHT22;14316;51.074;3.704;2024-02-04T05:06:42;10.40;99.90
26703;DHT22;14316;51.074;3.704;2024-02-04T05:09:08;10.40;99.90
26703;DHT22;14316;51.074;3.704;2024-02-04T05:11:34;10.40;99.90
26703;DHT22;14316;51.074;3.704;2024-02-04T05:14:00;10.50;99.90
26703;DHT22;14316;51.074;3.704;2024-02-04T05:16:26;10.50;99.90
26703;DHT22;14316;51.074;3.704;2024-02-04T05:18:52;10.50;99.90
26703;DHT22;14316;51.074;3.704;2024-02-04T05:21:18;10.50;99.90
26703;DHT22;14316;51.074;3.704;2024-02-04T05:23:43;10.50;99.90
26703;DHT22;14316;51.074;3.704;2024-02-04T05:26:10;10.50;99.90
26703;DHT22;14316;51.074;3.704;2024-02-04T05:28:36;10.40;99.90
26703;DHT22;14316;51.074;3.704;2024-02-04T05:31:02;10.40;99.90
26703;DHT22;14316;51.074;3.704;2024-02-04T05:33:28;10.40;99.90
26703;DHT22;14316;51.074;3.704;2024-02-04T05:35:54;10.40;99.90
26703;DHT22;14316;51.074;3.704;2024-02-04T05:38:21;10.40;99.90
26703;DHT22;14316;51.074;3.704;2024-02-04T05:40:47;10.40;99.90
26703;DHT22;14316;51.074;3.704;2024-02-04T05:43:13;10.30;99.90
26703;DHT22;14316;51.074;3.704;2024-02-04T05:45:39;10.30;99.90
26703;DHT22;14316;51.074;3.704;2024-02-04T05:48:09;10.30;99.90
26703;DHT22;14316;51.074;3.704;2024-02-04T05:50:35;10.30;99.90
26703;DHT22;14316;51.074;3.704;2024-02-04T05:53:01;10.30;99.90
26703;DHT22;14316;51.074;3.704;2024-02-04T05:55:27;10.30;99.90
26703;DHT22;14316;51.074;3.704;2024-02-04T05:57:52;10.20;99.90
26703;DHT22;14316;51.074;3.704;2024-02-04T06:00:19;10.30;99.90
26703;DHT22;14316;51.074;3.704;2024-02-04T06:02:45;10.20;99.90
26703;DHT22;14316;51.074;3.704;2024-02-04T06:05:14;10.20;99.90
26703;DHT22;14316;51.074;3.704;2024-02-04T06:07:42;10.20;99.90
26703;DHT22;14316;51.074;3.704;2024-02-04T06:10:11;10.20;99.90
26703;DHT22;14316;51.074;3.704;2024-02-04T06:12:37;10.20;99.90
26703;DHT22;14316;51.074;3.704;2024-02-04T06:15:11;10.20;99.90
26703;DHT22;14316;51.074;3.704;2024-02-04T06:17:38;10.20;99.90
26703;DHT22;14316;51.074;3.704;2024-02-04T06:20:04;10.20;99.90
26703;DHT22;14316;51.074;3.704;2024-02-04T06:22:34;10.20;99.90
26703;DHT22;14316;51.074;3.704;2024-02-04T06:25:01;10.20;99.90
26703;DHT22;14316;51.074;3.704;2024-02-04T06:27:27;10.20;99.90
26703;DHT22;14316;51.074;3.704;2024-02-04T06:29:53;10.20;99.90
26703;DHT22;14316;51.074;3.704;2024-02-04T06:32:19;10.10;99.90
26703;DHT22;14316;51.074;3.704;2024-02-04T06:34:47;10.20;99.90
26703;DHT22;14316;51.074;3.704;2024-02-04T06:37:13;10.20;99.90
26703;DHT22;14316;51.074;3.704;2024-02-04T06:39:39;10.20;99.90
26703;DHT22;14316;51.074;3.704;2024-02-04T06:42:05;10.20;99.90
26703;DHT22;14316;51.074;3.704;2024-02-04T06:44:31;10.10;99.90
26703;DHT22;14316;51.074;3.704;2024-02-04T06:46:57;10.20;99.90
26703;DHT22;14316;51.074;3.704;2024-02-04T06:49:23;10.20;99.90
26703;DHT22;14316;51.074;3.704;2024-02-04T06:51:49;10.20;99.90
26703;DHT22;14316;51.074;3.704;2024-02-04T06:54:16;10.20;99.90
26703;DHT22;14316;51.074;3.704;2024-02-04T06:56:42;10.20;99.90
26703;DHT22;14316;51.074;3.704;2024-02-04T06:59:08;10.20;99.90
26703;DHT22;14316;51.074;3.704;2024-02-04T07:01:34;10.20;99.90
26703;DHT22;14316;51.074;3.704;2024-02-04T07:04:00;10.20;99.90
26703;DHT22;14316;51.074;3.704;2024-02-04T07:06:25;10.30;99.90
26703;DHT22;14316;51.074;3.704;2024-02-04T07:08:51;10.30;99.90
26703;DHT22;14316;51.074;3.704;2024-02-04T07:11:17;10.30;99.90
26703;DHT22;14316;51.074;3.704;2024-02-04T07:13:44;10.30;99.90
26703;DHT22;14316;51.074;3.704;2024-02-04T07:16:09;10.30;99.90
26703;DHT22;14316;51.074;3.704;2024-02-04T07:18:35;10.40;99.90
26703;DHT22;14316;51.074;3.704;2024-02-04T07:21:01;10.30;99.90
26703;DHT22;14316;51.074;3.704;2024-02-04T07:23:28;10.40;99.90
26703;DHT22;14316;51.074;3.704;2024-02-04T07:25:53;10.40;99.90
26703;DHT22;14316;51.074;3.704;2024-02-04T07:28:19;10.40;99.90
26703;DHT22;14316;51.074;3.704;2024-02-04T07:30:45;10.40;99.90
26703;DHT22;14316;51.074;3.704;2024-02-04T07:33:11;10.40;99.90
26703;DHT22;14316;51.074;3.704;2024-02-04T07:35:37;10.40;99.90
26703;DHT22;14316;51.074;3.704;2024-02-04T07:38:03;10.50;99.90
26703;DHT22;14316;51.074;3.704;2024-02-04T07:40:29;10.50;99.90
26703;DHT22;14316;51.074;3.704;2024-02-04T07:42:55;10.50;99.90
26703;DHT22;14316;51.074;3.704;2024-02-04T07:45:21;10.50;99.90
26703;DHT22;14316;51.074;3.704;2024-02-04T07:47:47;10.50;99.90
26703;DHT22;14316;51.074;3.704;2024-02-04T07:50:13;10.60;99.90
26703;DHT22;14316;51.074;3.704;2024-02-04T07:52:39;10.60;99.90
26703;DHT22;14316;51.074;3.704;2024-02-04T07:55:05;10.60;99.90
26703;DHT22;14316;51.074;3.704;2024-02-04T07:57:31;10.60;99.90
26703;DHT22;14316;51.074;3.704;2024-02-04T07:59:57;10.60;99.90
26703;DHT22;14316;51.074;3.704;2024-02-04T08:02:23;10.60;99.90
26703;DHT22;14316;51.074;3.704;2024-02-04T08:04:49;10.60;99.90
26703;DHT22;14316;51.074;3.704;2024-02-04T08:07:15;10.60;99.90
26703;DHT22;14316;51.074;3.704;2024-02-04T08:09:43;10.60;99.90
26703;DHT22;14316;51.074;3.704;2024-02-04T08:12:09;10.60;99.90
26703;DHT22;14316;51.074;3.704;2024-02-04T08:14:35;10.70;99.90
26703;DHT22;14316;51.074;3.704;2024-02-04T08:17:01;10.70;99.90
26703;DHT22;14316;51.074;3.704;2024-02-04T08:19:27;10.70;99.90
26703;DHT22;14316;51.074;3.704;2024-02-04T08:21:53;10.70;99.90
26703;DHT22;14316;51.074;3.704;2024-02-04T08:24:19;10.70;99.90
26703;DHT22;14316;51.074;3.704;2024-02-04T08:26:45;10.70;99.90
26703;DHT22;14316;51.074;3.704;2024-02-04T08:29:11;10.80;99.90
26703;DHT22;14316;51.074;3.704;2024-02-04T08:31:37;10.80;99.90
26703;DHT22;14316;51.074;3.704;2024-02-04T08:34:02;10.80;99.90
26703;DHT22;14316;51.074;3.704;2024-02-04T08:36:31;10.80;99.90
26703;DHT22;14316;51.074;3.704;2024-02-04T08:38:57;10.80;99.90
26703;DHT22;14316;51.074;3.704;2024-02-04T08:41:23;10.80;99.90
26703;DHT22;14316;51.074;3.704;2024-02-04T08:43:49;10.80;99.90
26703;DHT22;14316;51.074;3.704;2024-02-04T08:46:15;10.90;99.90
26703;DHT22;14316;51.074;3.704;2024-02-04T08:48:41;10.90;99.90
26703;DHT22;14316;51.074;3.704;2024-02-04T08:51:14;10.90;99.90
26703;DHT22;14316;51.074;3.704;2024-02-04T08:53:42;10.90;99.90
26703;DHT22;14316;51.074;3.704;2024-02-04T08:56:08;11.00;99.90
26703;DHT22;14316;51.074;3.704;2024-02-04T08:58:35;11.00;99.90
26703;DHT22;14316;51.074;3.704;2024-02-04T09:01:03;11.00;99.90
26703;DHT22;14316;51.074;3.704;2024-02-04T09:03:29;11.00;99.90
26703;DHT22;14316;51.074;3.704;2024-02-04T09:05:57;11.10;99.90
26703;DHT22;14316;51.074;3.704;2024-02-04T09:08:23;11.10;99.90
26703;DHT22;14316;51.074;3.704;2024-02-04T09:10:49;11.10;99.90
26703;DHT22;14316;51.074;3.704;2024-02-04T09:13:15;11.20;99.90
26703;DHT22;14316;51.074;3.704;2024-02-04T09:15:41;11.20;99.90
26703;DHT22;14316;51.074;3.704;2024-02-04T09:18:07;11.20;99.90
26703;DHT22;14316;51.074;3.704;2024-02-04T09:20:33;11.20;99.90
26703;DHT22;14316;51.074;3.704;2024-02-04T09:22:59;11.20;99.90
26703;DHT22;14316;51.074;3.704;2024-02-04T09:25:25;11.20;99.90
26703;DHT22;14316;51.074;3.704;2024-02-04T09:27:51;11.30;99.90
26703;DHT22;14316;51.074;3.704;2024-02-04T09:30:17;11.30;99.90
26703;DHT22;14316;51.074;3.704;2024-02-04T09:32:43;11.30;99.90
26703;DHT22;14316;51.074;3.704;2024-02-04T09:35:09;11.40;99.90
26703;DHT22;14316;51.074;3.704;2024-02-04T09:37:35;11.40;99.90
26703;DHT22;14316;51.074;3.704;2024-02-04T09:40:01;11.40;99.90
26703;DHT22;14316;51.074;3.704;2024-02-04T09:42:27;11.50;99.90
26703;DHT22;14316;51.074;3.704;2024-02-04T09:44:55;11.50;99.90
26703;DHT22;14316;51.074;3.704;2024-02-04T09:47:21;11.50;99.90
26703;DHT22;14316;51.074;3.704;2024-02-04T09:49:47;11.60;99.90
26703;DHT22;14316;51.074;3.704;2024-02-04T09:52:13;11.60;99.90
26703;DHT22;14316;51.074;3.704;2024-02-04T09:54:47;11.70;99.90
26703;DHT22;14316;51.074;3.704;2024-02-04T09:57:16;11.70;99.90
26703;DHT22;14316;51.074;3.704;2024-02-04T09:59:44;11.70;99.90
26703;DHT22;14316;51.074;3.704;2024-02-04T10:02:10;11.70;99.90
26703;DHT22;14316;51.074;3.704;2024-02-04T10:04:36;11.70;99.90
26703;DHT22;14316;51.074;3.704;2024-02-04T10:07:02;11.80;99.90
26703;DHT22;14316;51.074;3.704;2024-02-04T10:09:28;11.80;99.90
26703;DHT22;14316;51.074;3.704;2024-02-04T10:11:56;11.90;99.90
26703;DHT22;14316;51.074;3.704;2024-02-04T10:14:22;11.80;99.90
26703;DHT22;14316;51.074;3.704;2024-02-04T10:16:49;11.80;99.90
26703;DHT22;14316;51.074;3.704;2024-02-04T10:19:16;11.80;99.90
26703;DHT22;14316;51.074;3.704;2024-02-04T10:21:41;11.80;99.90
26703;DHT22;14316;51.074;3.704;2024-02-04T10:24:07;11.80;99.90
26703;DHT22;14316;51.074;3.704;2024-02-04T10:26:34;11.80;99.90
26703;DHT22;14316;51.074;3.704;2024-02-04T10:29:03;11.80;99.90
26703;DHT22;14316;51.074;3.704;2024-02-04T10:31:29;11.90;99.90
26703;DHT22;14316;51.074;3.704;2024-02-04T10:33:56;11.90;99.90
26703;DHT22;14316;51.074;3.704;2024-02-04T10:36:22;11.80;99.90
26703;DHT22;14316;51.074;3.704;2024-02-04T10:38:48;11.80;99.90
26703;DHT22;14316;51.074;3.704;2024-02-04T10:41:16;11.80;99.90
26703;DHT22;14316;51.074;3.704;2024-02-04T10:43:44;11.80;99.90
26703;DHT22;14316;51.074;3.704;2024-02-04T10:46:17;11.80;99.90
26703;DHT22;14316;51.074;3.704;2024-02-04T10:48:44;11.80;99.90
26703;DHT22;14316;51.074;3.704;2024-02-04T10:51:13;11.80;99.90
26703;DHT22;14316;51.074;3.704;2024-02-04T10:53:44;11.80;99.90
26703;DHT22;14316;51.074;3.704;2024-02-04T10:56:22;11.80;99.90
26703;DHT22;14316;51.074;3.704;2024-02-04T10:58:49;11.80;99.90
26703;DHT22;14316;51.074;3.704;2024-02-04T11:01:16;11.80;99.90
26703;DHT22;14316;51.074;3.704;2024-02-04T11:03:43;11.90;99.90
26703;DHT22;14316;51.074;3.704;2024-02-04T11:06:11;11.90;99.90
26703;DHT22;14316;51.074;3.704;2024-02-04T11:08:41;11.90;99.90
26703;DHT22;14316;51.074;3.704;2024-02-04T11:11:08;11.90;99.90
26703;DHT22;14316;51.074;3.704;2024-02-04T11:13:34;12.00;99.90
26703;DHT22;14316;51.074;3.704;2024-02-04T11:16:06;12.00;99.90
26703;DHT22;14316;51.074;3.704;2024-02-04T11:21:46;12.00;99.90
26703;DHT22;14316;51.074;3.704;2024-02-04T11:27:10;12.10;99.90
26703;DHT22;14316;51.074;3.704;2024-02-04T11:29:37;12.10;99.90
26703;DHT22;14316;51.074;3.704;2024-02-04T11:32:04;12.10;99.90
26703;DHT22;14316;51.074;3.704;2024-02-04T11:34:30;12.10;99.90
26703;DHT22;14316;51.074;3.704;2024-02-04T11:36:56;12.10;99.90
26703;DHT22;14316;51.074;3.704;2024-02-04T11:39:24;12.10;99.90
26703;DHT22;14316;51.074;3.704;2024-02-04T11:41:51;12.10;99.90
26703;DHT22;14316;51.074;3.704;2024-02-04T11:44:24;12.00;99.90
26703;DHT22;14316;51.074;3.704;2024-02-04T11:46:50;12.10;99.90
26703;DHT22;14316;51.074;3.704;2024-02-04T11:49:17;12.00;99.90
26703;DHT22;14316;51.074;3.704;2024-02-04T11:51:52;12.00;99.90
26703;DHT22;14316;51.074;3.704;2024-02-04T11:54:19;12.10;99.90
26703;DHT22;14316;51.074;3.704;2024-02-04T11:56:47;12.10;99.90
26703;DHT22;14316;51.074;3.704;2024-02-04T11:59:27;12.10;99.90
26703;DHT22;14316;51.074;3.704;2024-02-04T12:02:05;12.10;99.90
26703;DHT22;14316;51.074;3.704;2024-02-04T12:04:31;12.10;99.90
26703;DHT22;14316;51.074;3.704;2024-02-04T12:06:58;12.10;99.90
26703;DHT22;14316;51.074;3.704;2024-02-04T12:09:24;12.20;99.90
26703;DHT22;14316;51.074;3.704;2024-02-04T12:11:53;12.10;99.90
26703;DHT22;14316;51.074;3.704;2024-02-04T12:14:20;12.10;99.90
26703;DHT22;14316;51.074;3.704;2024-02-04T12:16:46;12.10;99.90
26703;DHT22;14316;51.074;3.704;2024-02-04T12:19:12;12.10;99.90
26703;DHT22;14316;51.074;3.704;2024-02-04T12:21:38;12.10;99.90
26703;DHT22;14316;51.074;3.704;2024-02-04T12:24:05;12.10;99.90
26703;DHT22;14316;51.074;3.704;2024-02-04T12:26:31;11.90;99.90
26703;DHT22;14316;51.074;3.704;2024-02-04T12:28:57;11.90;99.90
26703;DHT22;14316;51.074;3.704;2024-02-04T12:31:27;11.90;99.90
26703;DHT22;14316;51.074;3.704;2024-02-04T12:33:58;12.00;99.90
26703;DHT22;14316;51.074;3.704;2024-02-04T12:36:27;12.00;99.90
26703;DHT22;14316;51.074;3.704;2024-02-04T12:38:58;11.90;99.90
26703;DHT22;14316;51.074;3.704;2024-02-04T12:41:25;12.00;99.90
26703;DHT22;14316;51.074;3.704;2024-02-04T12:43:55;12.10;99.90
26703;DHT22;14316;51.074;3.704;2024-02-04T12:46:22;12.20;99.90
26703;DHT22;14316;51.074;3.704;2024-02-04T12:48:55;12.30;99.90
26703;DHT22;14316;51.074;3.704;2024-02-04T12:51:31;12.20;99.90
26703;DHT22;14316;51.074;3.704;2024-02-04T12:54:06;12.10;99.90
26703;DHT22;14316;51.074;3.704;2024-02-04T12:56:51;12.00;99.90
26703;DHT22;14316;51.074;3.704;2024-02-04T12:59:31;12.00;99.90
26703;DHT22;14316;51.074;3.704;2024-02-04T13:02:02;12.00;99.90
26703;DHT22;14316;51.074;3.704;2024-02-04T13:04:38;11.90;99.90
26703;DHT22;14316;51.074;3.704;2024-02-04T13:07:08;11.80;99.90
26703;DHT22;14316;51.074;3.704;2024-02-04T13:09:35;11.80;99.90
26703;DHT22;14316;51.074;3.704;2024-02-04T13:12:05;11.80;99.90
26703;DHT22;14316;51.074;3.704;2024-02-04T13:14:33;11.80;99.90
26703;DHT22;14316;51.074;3.704;2024-02-04T13:16:59;11.80;99.90
26703;DHT22;14316;51.074;3.704;2024-02-04T13:19:31;11.80;99.90
26703;DHT22;14316;51.074;3.704;2024-02-04T13:21:57;11.70;99.90
26703;DHT22;14316;51.074;3.704;2024-02-04T13:24:23;11.70;99.90
26703;DHT22;14316;51.074;3.704;2024-02-04T13:26:49;11.80;99.90
26703;DHT22;14316;51.074;3.704;2024-02-04T13:29:15;11.70;99.90
26703;DHT22;14316;51.074;3.704;2024-02-04T13:31:41;11.80;99.90
26703;DHT22;14316;51.074;3.704;2024-02-04T13:34:07;11.80;99.90
26703;DHT22;14316;51.074;3.704;2024-02-04T13:36:33;11.80;99.90
26703;DHT22;14316;51.074;3.704;2024-02-04T13:38:59;11.90;99.90
26703;DHT22;14316;51.074;3.704;2024-02-04T13:41:25;11.90;99.90
26703;DHT22;14316;51.074;3.704;2024-02-04T13:43:50;12.00;99.90
26703;DHT22;14316;51.074;3.704;2024-02-04T13:46:16;12.10;99.90
26703;DHT22;14316;51.074;3.704;2024-02-04T13:48:42;12.20;99.90
26703;DHT22;14316;51.074;3.704;2024-02-04T13:51:08;12.20;99.90
26703;DHT22;14316;51.074;3.704;2024-02-04T13:53:34;12.30;99.90
26703;DHT22;14316;51.074;3.704;2024-02-04T13:56:01;12.20;99.90
26703;DHT22;14316;51.074;3.704;2024-02-04T13:58:27;12.30;99.90
26703;DHT22;14316;51.074;3.704;2024-02-04T14:00:53;12.20;99.90
26703;DHT22;14316;51.074;3.704;2024-02-04T14:03:19;12.30;99.90
26703;DHT22;14316;51.074;3.704;2024-02-04T14:05:45;12.30;99.90
26703;DHT22;14316;51.074;3.704;2024-02-04T14:08:11;12.30;99.90
26703;DHT22;14316;51.074;3.704;2024-02-04T14:10:37;12.30;99.90
26703;DHT22;14316;51.074;3.704;2024-02-04T14:13:04;12.30;99.90
26703;DHT22;14316;51.074;3.704;2024-02-04T14:15:30;12.30;99.90
26703;DHT22;14316;51.074;3.704;2024-02-04T14:17:57;12.30;99.90
26703;DHT22;14316;51.074;3.704;2024-02-04T14:20:23;12.30;99.90
26703;DHT22;14316;51.074;3.704;2024-02-04T14:22:50;12.40;99.90
26703;DHT22;14316;51.074;3.704;2024-02-04T14:25:16;12.50;99.90
26703;DHT22;14316;51.074;3.704;2024-02-04T14:27:42;12.40;99.90
26703;DHT22;14316;51.074;3.704;2024-02-04T14:30:09;12.40;99.90
26703;DHT22;14316;51.074;3.704;2024-02-04T14:32:35;12.30;99.90
26703;DHT22;14316;51.074;3.704;2024-02-04T14:35:01;12.40;99.90
26703;DHT22;14316;51.074;3.704;2024-02-04T14:37:30;12.40;99.90
26703;DHT22;14316;51.074;3.704;2024-02-04T14:39:58;12.40;99.90
26703;DHT22;14316;51.074;3.704;2024-02-04T14:42:26;12.20;99.90
26703;DHT22;14316;51.074;3.704;2024-02-04T14:44:52;12.20;99.90
26703;DHT22;14316;51.074;3.704;2024-02-04T14:47:18;12.20;99.90
26703;DHT22;14316;51.074;3.704;2024-02-04T14:49:44;12.10;99.90
26703;DHT22;14316;51.074;3.704;2024-02-04T14:52:10;12.20;99.90
26703;DHT22;14316;51.074;3.704;2024-02-04T14:54:36;12.20;99.90
26703;DHT22;14316;51.074;3.704;2024-02-04T14:57:05;12.20;99.90
26703;DHT22;14316;51.074;3.704;2024-02-04T14:59:31;12.20;99.90
26703;DHT22;14316;51.074;3.704;2024-02-04T15:02:03;12.20;99.90
26703;DHT22;14316;51.074;3.704;2024-02-04T15:04:33;12.20;99.90
26703;DHT22;14316;51.074;3.704;2024-02-04T15:06:59;12.10;99.90
26703;DHT22;14316;51.074;3.704;2024-02-04T15:09:32;12.10;99.90
26703;DHT22;14316;51.074;3.704;2024-02-04T15:11:58;12.10;99.90
26703;DHT22;14316;51.074;3.704;2024-02-04T15:14:24;12.10;99.90
26703;DHT22;14316;51.074;3.704;2024-02-04T15:16:50;12.00;99.90
26703;DHT22;14316;51.074;3.704;2024-02-04T15:19:17;12.00;99.90
26703;DHT22;14316;51.074;3.704;2024-02-04T15:21:43;12.00;99.90
26703;DHT22;14316;51.074;3.704;2024-02-04T15:24:09;11.90;99.90
26703;DHT22;14316;51.074;3.704;2024-02-04T15:26:36;12.00;99.90
26703;DHT22;14316;51.074;3.704;2024-02-04T15:29:03;11.90;99.90
26703;DHT22;14316;51.074;3.704;2024-02-04T15:31:30;11.90;99.90
26703;DHT22;14316;51.074;3.704;2024-02-04T15:33:56;11.90;99.90
26703;DHT22;14316;51.074;3.704;2024-02-04T15:36:22;11.80;99.90
26703;DHT22;14316;51.074;3.704;2024-02-04T15:38:50;11.90;99.90